^^

Nearby METAR Reports

METAR (Meteorological Aerodrome Report) are Airport generated local weather condition reports for use, predominantly by pilots, these reports are also used as part of compliment of data sets required for Chatteris Weathers prediction software - WxSim.

EGUN - Mildenhall Raf, United Kingdom
Distance from station: ESE 19mi, 31km
Updated: 28/03/2020 18:55
Clear
Clear
 Wind from NNE
Wind: NNE 15 mph , 24 km/h, Gust: 26 mph , 43 km/h
Temperature: 6°C
Wind Chill: 2°C
Dew Point: -1°C
Humidity: 61%
Barometer: 1032.8 hPa
Clouds: Clear
Visibility: 6 miles , 10 km
2020/03/28 18:55 EGUN 281855Z 02013G23KT 9999 CLR 06/M01 A3050 RMK AO2A SLP328 WND DATA ESTMD ALSTG/SLP ESTMD RVRNO
EGSC - Cambridge, United Kingdom
Distance from station: SSE 20mi, 32km
Updated: 27/03/2020 17:50
NOT Current
Clear
Clear
 Wind from NNE
Wind: NNE 17 mph , 28 km/h
Temperature: 9°C
Wind Chill: 6°C
Dew Point: 0°C
Humidity: 54%
Barometer: 1024 hPa
Summary: Clear
Visibility: greater than 7 miles , 10 km
2020/03/27 17:50 EGSC 271750Z 03015KT CAVOK 09/M00 Q1024
 
EGUL - Lakenheath Raf, United Kingdom
Distance from station: E 22mi, 36km
Updated: 28/03/2020 18:56
Few Clouds
Few Clouds
 Wind from N
Wind: N 15 mph , 24 km/h
Temperature: 6°C
Wind Chill: 2°C
Dew Point: 0°C
Humidity: 66%
Barometer: 1032.5 hPa
Clouds: Few Clouds
Visibility: 6 miles , 10 km
Cloud details: Few Clouds 1067 m
2020/03/28 18:56 EGUL 281856Z AUTO 36013KT 9999 FEW035 06/00 A3049 RMK AO2 SLP329 T00581003 $
EGXT - Wittering Raf, United Kingdom
Distance from station: WNW 24mi, 38km
Updated: 28/03/2020 18:50
Partly cloudy
Partly cloudy
 Wind from NNE
Wind: NNE 18 mph , 30 km/h
Temperature: 5°C
Wind Chill: 0°C
Dew Point: 0°C
Humidity: 70%
Barometer: 1034 hPa
Clouds: Partly cloudy
Visibility: 6 miles , 10 km
Cloud details: Few Clouds 914 m
Partly cloudy 1036 m
2020/03/28 18:50 EGXT 281850Z AUTO 02016KT 9999 FEW030/// SCT034/// 05/M00 Q1034
 
EGYH - Holbeach (aut), United Kingdom
Distance from station: N 27mi, 44km
Updated: 26/03/2020 19:50
NOT Current
Clear
Clear
 Wind from E
Wind: E 20 mph , 31 km/h
Temperature: 6°C
Wind Chill: 1°C
Dew Point: 2°C
Humidity: 76%
Barometer: 1025 hPa
Summary: Clear
Visibility: greater than 7 miles , 10 km
2020/03/26 19:50 EGYH 261950Z 08017KT CAVOK 06/02 Q1025 RMK BLU
EGSS - Stansted Airport, United Kingdom
Distance from station: SE 11mi, 18km
Updated: 28/03/2020 19:20
Clear
Clear
 Wind from NNE
Wind: NNE 15 mph , 24 km/h, Gust: 26 mph , 43 km/h
Temperature: 5°C
Wind Chill: 1°C
Dew Point: -1°C
Humidity: 66%
Barometer: 1032 hPa
Clouds: Clear
Visibility: 6 miles , 10 km
2020/03/28 19:20 EGSS 281920Z AUTO 02013G23KT 9999 NCD 05/M01 Q1032
 
EGGW - Luton Airport, United Kingdom
Distance from station: WSW 19mi, 31km
Updated: 28/03/2020 19:20
Mostly cloudy
Mostly cloudy
 Wind from NNE
Wind: NNE 24 mph , 39 km/h, Gust: 38 mph , 61 km/h
Temperature: 5°C
Wind Chill: -1°C
Dew Point: 1°C
Humidity: 76%
Barometer: 1032 hPa
Clouds: Mostly cloudy
Visibility: 6 miles , 10 km
Cloud details: Mostly cloudy 671 m
Mostly cloudy 945 m
2020/03/28 19:20 EGGW 281920Z AUTO 02021G33KT 9999 BKN022 BKN031 05/01 Q1032
EGLL - London/Heathrow, United Kingdom
Distance from station: SSW 41mi, 66km
Updated: 28/03/2020 19:20
Mostly cloudy
Mostly cloudy
 Wind from NNE
Wind: NNE 13 mph , 20 km/h, Gust: 24 mph , 39 km/h
Temperature: 7°C
Wind Chill: 4°C
Dew Point: 0°C
Humidity: 61%
Barometer: 1032 hPa
Clouds: Mostly cloudy
Visibility: 6 miles , 10 km
Cloud details: Mostly cloudy 1250 m
2020/03/28 19:20 EGLL 281920Z AUTO 03011G21KT 360V060 9999 BKN041 07/M00 Q1032 NOSIG
 
EGKK - London/Gatwick A, United Kingdom
Distance from station: S 60mi, 97km
Updated: 28/03/2020 19:20
Partly cloudy
Partly cloudy
 Wind from NNE
Wind: NNE 24 mph , 39 km/h
Temperature: 8°C
Wind Chill: 3°C
Dew Point: -1°C
Humidity: 53%
Barometer: 1031 hPa
Clouds: Partly cloudy
Visibility: 6 miles , 10 km
Cloud details: Partly cloudy 1494 m
2020/03/28 19:20 EGKK 281920Z 03021KT 9999 SCT049 08/M01 Q1031
EGUY - Wyton Raf, United Kingdom
Distance from station: SW 11mi, 18km
Updated: 04/10/2015 09:50
NOT Current
Haze, Clear
Haze, Clear
 Wind from SSE
Wind: SSE 2 mph , 4 km/h
Temperature: 11°C
Dew Point: 7°C
Humidity: 77%
Barometer: 1014 hPa
Summary: Haze
Clouds: Clear
Visibility: 4 miles , 6 km
2015/10/04 08:50 EGUY 040850Z 15002KT 6000 HZ SKC 11/07 Q1014 WHT

Met Office METAR data link, decoding METAR data code.